sensor_id;sensor_type;location;lat;lon;timestamp;temperature;humidity
6407;DHT22;3236;51.022;6.818;2023-06-14T00:00:50;17.00;99.90
6407;DHT22;3236;51.022;6.818;2023-06-14T00:03:18;16.40;99.90
6407;DHT22;3236;51.022;6.818;2023-06-14T00:05:47;16.40;99.90
6407;DHT22;3236;51.022;6.818;2023-06-14T00:08:18;17.00;99.90
6407;DHT22;3236;51.022;6.818;2023-06-14T00:10:47;17.00;99.90
6407;DHT22;3236;51.022;6.818;2023-06-14T00:13:14;17.00;99.90
6407;DHT22;3236;51.022;6.818;2023-06-14T00:15:41;16.90;99.90
6407;DHT22;3236;51.022;6.818;2023-06-14T00:18:08;16.80;99.90
6407;DHT22;3236;51.022;6.818;2023-06-14T00:20:37;16.40;99.90
6407;DHT22;3236;51.022;6.818;2023-06-14T00:23:05;16.50;99.90
6407;DHT22;3236;51.022;6.818;2023-06-14T00:25:33;16.20;99.90
6407;DHT22;3236;51.022;6.818;2023-06-14T00:28:00;16.30;99.90
6407;DHT22;3236;51.022;6.818;2023-06-14T00:30:27;16.00;99.90
6407;DHT22;3236;51.022;6.818;2023-06-14T00:32:57;16.10;99.90
6407;DHT22;3236;51.022;6.818;2023-06-14T00:35:25;16.30;99.90
6407;DHT22;3236;51.022;6.818;2023-06-14T00:37:53;16.40;99.90
6407;DHT22;3236;51.022;6.818;2023-06-14T00:40:21;16.10;99.90
6407;DHT22;3236;51.022;6.818;2023-06-14T00:42:50;16.40;99.90
6407;DHT22;3236;51.022;6.818;2023-06-14T00:45:17;16.30;99.90
6407;DHT22;3236;51.022;6.818;2023-06-14T00:47:46;16.20;99.90
6407;DHT22;3236;51.022;6.818;2023-06-14T00:50:14;16.10;99.90
6407;DHT22;3236;51.022;6.818;2023-06-14T00:52:41;16.00;99.90
6407;DHT22;3236;51.022;6.818;2023-06-14T00:55:09;16.00;99.90
6407;DHT22;3236;51.022;6.818;2023-06-14T00:57:36;15.20;99.90
6407;DHT22;3236;51.022;6.818;2023-06-14T01:00:11;16.10;99.90
6407;DHT22;3236;51.022;6.818;2023-06-14T01:02:39;16.10;99.90
6407;DHT22;3236;51.022;6.818;2023-06-14T01:05:07;16.10;99.90
6407;DHT22;3236;51.022;6.818;2023-06-14T01:08:00;16.10;99.90
6407;DHT22;3236;51.022;6.818;2023-06-14T01:10:38;16.10;99.90
6407;DHT22;3236;51.022;6.818;2023-06-14T01:13:12;16.30;99.90
6407;DHT22;3236;51.022;6.818;2023-06-14T01:15:44;16.40;99.90
6407;DHT22;3236;51.022;6.818;2023-06-14T01:18:12;16.40;99.90
6407;DHT22;3236;51.022;6.818;2023-06-14T01:20:46;16.10;99.90
6407;DHT22;3236;51.022;6.818;2023-06-14T01:23:16;16.10;99.90
6407;DHT22;3236;51.022;6.818;2023-06-14T01:25:43;16.30;99.90
6407;DHT22;3236;51.022;6.818;2023-06-14T01:28:11;16.10;99.90
6407;DHT22;3236;51.022;6.818;2023-06-14T01:30:41;15.90;99.90
6407;DHT22;3236;51.022;6.818;2023-06-14T01:33:12;15.80;99.90
6407;DHT22;3236;51.022;6.818;2023-06-14T01:35:41;15.90;99.90
6407;DHT22;3236;51.022;6.818;2023-06-14T01:38:08;15.70;99.90
6407;DHT22;3236;51.022;6.818;2023-06-14T01:40:37;15.60;99.90
6407;DHT22;3236;51.022;6.818;2023-06-14T01:43:07;15.50;99.90
6407;DHT22;3236;51.022;6.818;2023-06-14T01:45:34;15.50;99.90
6407;DHT22;3236;51.022;6.818;2023-06-14T01:48:03;15.40;99.90
6407;DHT22;3236;51.022;6.818;2023-06-14T01:50:31;15.30;99.90
6407;DHT22;3236;51.022;6.818;2023-06-14T01:52:58;15.00;99.90
6407;DHT22;3236;51.022;6.818;2023-06-14T01:55:25;15.10;99.90
6407;DHT22;3236;51.022;6.818;2023-06-14T01:57:54;15.10;99.90
6407;DHT22;3236;51.022;6.818;2023-06-14T02:00:21;15.30;99.90
6407;DHT22;3236;51.022;6.818;2023-06-14T02:02:48;15.00;99.90
6407;DHT22;3236;51.022;6.818;2023-06-14T02:05:15;14.80;99.90
6407;DHT22;3236;51.022;6.818;2023-06-14T02:07:44;14.80;99.90
6407;DHT22;3236;51.022;6.818;2023-06-14T02:10:16;14.80;99.90
6407;DHT22;3236;51.022;6.818;2023-06-14T02:12:43;14.60;99.90
6407;DHT22;3236;51.022;6.818;2023-06-14T02:15:12;14.50;99.90
6407;DHT22;3236;51.022;6.818;2023-06-14T02:17:42;14.60;99.90
6407;DHT22;3236;51.022;6.818;2023-06-14T02:20:10;14.60;99.90
6407;DHT22;3236;51.022;6.818;2023-06-14T02:22:37;14.50;99.90
6407;DHT22;3236;51.022;6.818;2023-06-14T02:25:07;14.50;99.90
6407;DHT22;3236;51.022;6.818;2023-06-14T02:27:35;14.50;99.90
6407;DHT22;3236;51.022;6.818;2023-06-14T02:30:02;14.50;99.90
6407;DHT22;3236;51.022;6.818;2023-06-14T02:32:35;14.40;99.90
6407;DHT22;3236;51.022;6.818;2023-06-14T02:35:03;14.30;99.90
6407;DHT22;3236;51.022;6.818;2023-06-14T02:37:30;14.20;99.90
6407;DHT22;3236;51.022;6.818;2023-06-14T02:39:59;14.10;99.90
6407;DHT22;3236;51.022;6.818;2023-06-14T02:42:26;14.00;99.90
6407;DHT22;3236;51.022;6.818;2023-06-14T02:44:54;14.00;99.90
6407;DHT22;3236;51.022;6.818;2023-06-14T02:47:21;14.00;99.90
6407;DHT22;3236;51.022;6.818;2023-06-14T02:49:50;14.10;99.90
6407;DHT22;3236;51.022;6.818;2023-06-14T02:52:17;14.00;99.90
6407;DHT22;3236;51.022;6.818;2023-06-14T02:54:44;14.00;99.90
6407;DHT22;3236;51.022;6.818;2023-06-14T02:57:12;14.10;99.90
6407;DHT22;3236;51.022;6.818;2023-06-14T02:59:39;14.30;99.90
6407;DHT22;3236;51.022;6.818;2023-06-14T03:02:07;14.30;99.90
6407;DHT22;3236;51.022;6.818;2023-06-14T03:04:34;14.30;99.90
6407;DHT22;3236;51.022;6.818;2023-06-14T03:07:04;14.50;99.90
6407;DHT22;3236;51.022;6.818;2023-06-14T03:09:35;14.40;99.90
6407;DHT22;3236;51.022;6.818;2023-06-14T03:12:05;14.40;99.90
6407;DHT22;3236;51.022;6.818;2023-06-14T03:14:33;14.40;99.90
6407;DHT22;3236;51.022;6.818;2023-06-14T03:17:00;14.40;99.90
6407;DHT22;3236;51.022;6.818;2023-06-14T03:19:28;14.20;99.90
6407;DHT22;3236;51.022;6.818;2023-06-14T03:21:55;14.30;99.90
6407;DHT22;3236;51.022;6.818;2023-06-14T03:24:24;14.30;99.90
6407;DHT22;3236;51.022;6.818;2023-06-14T03:26:53;14.30;99.90
6407;DHT22;3236;51.022;6.818;2023-06-14T03:29:20;14.20;99.90
6407;DHT22;3236;51.022;6.818;2023-06-14T03:31:57;14.10;99.90
6407;DHT22;3236;51.022;6.818;2023-06-14T03:34:25;14.60;99.90
6407;DHT22;3236;51.022;6.818;2023-06-14T03:36:52;13.90;99.90
6407;DHT22;3236;51.022;6.818;2023-06-14T03:39:20;13.90;99.90
6407;DHT22;3236;51.022;6.818;2023-06-14T03:41:49;13.80;99.90
6407;DHT22;3236;51.022;6.818;2023-06-14T03:44:16;13.90;99.90
6407;DHT22;3236;51.022;6.818;2023-06-14T03:46:44;13.90;99.90
6407;DHT22;3236;51.022;6.818;2023-06-14T03:49:11;13.90;99.90
6407;DHT22;3236;51.022;6.818;2023-06-14T03:51:38;14.50;99.90
6407;DHT22;3236;51.022;6.818;2023-06-14T03:54:06;14.00;99.90
6407;DHT22;3236;51.022;6.818;2023-06-14T03:56:34;14.10;99.90
6407;DHT22;3236;51.022;6.818;2023-06-14T03:59:03;14.20;99.90
6407;DHT22;3236;51.022;6.818;2023-06-14T04:01:30;13.70;99.90
6407;DHT22;3236;51.022;6.818;2023-06-14T04:04:08;14.10;99.90
6407;DHT22;3236;51.022;6.818;2023-06-14T04:06:35;14.30;99.90
6407;DHT22;3236;51.022;6.818;2023-06-14T04:09:02;14.20;99.90
6407;DHT22;3236;51.022;6.818;2023-06-14T04:11:32;14.20;99.90
6407;DHT22;3236;51.022;6.818;2023-06-14T04:14:01;14.20;99.90
6407;DHT22;3236;51.022;6.818;2023-06-14T04:16:30;14.40;99.90
6407;DHT22;3236;51.022;6.818;2023-06-14T04:18:57;14.40;99.90
6407;DHT22;3236;51.022;6.818;2023-06-14T04:21:24;14.40;99.90
6407;DHT22;3236;51.022;6.818;2023-06-14T04:23:53;14.50;99.90
6407;DHT22;3236;51.022;6.818;2023-06-14T04:26:21;14.60;99.90
6407;DHT22;3236;51.022;6.818;2023-06-14T04:28:49;14.70;99.90
6407;DHT22;3236;51.022;6.818;2023-06-14T04:31:16;14.70;99.90
6407;DHT22;3236;51.022;6.818;2023-06-14T04:33:45;14.70;99.90
6407;DHT22;3236;51.022;6.818;2023-06-14T04:36:16;15.00;99.90
6407;DHT22;3236;51.022;6.818;2023-06-14T04:38:43;15.30;99.90
6407;DHT22;3236;51.022;6.818;2023-06-14T04:41:12;15.50;99.90
6407;DHT22;3236;51.022;6.818;2023-06-14T04:43:39;15.50;99.90
6407;DHT22;3236;51.022;6.818;2023-06-14T04:46:09;15.60;99.90
6407;DHT22;3236;51.022;6.818;2023-06-14T04:48:37;15.70;99.90
6407;DHT22;3236;51.022;6.818;2023-06-14T04:51:09;15.80;99.90
6407;DHT22;3236;51.022;6.818;2023-06-14T04:53:47;15.90;99.90
6407;DHT22;3236;51.022;6.818;2023-06-14T04:56:15;16.00;99.90
6407;DHT22;3236;51.022;6.818;2023-06-14T04:58:42;16.00;99.90
6407;DHT22;3236;51.022;6.818;2023-06-14T05:01:10;16.00;99.90
6407;DHT22;3236;51.022;6.818;2023-06-14T05:03:38;16.20;99.90
6407;DHT22;3236;51.022;6.818;2023-06-14T05:06:08;16.30;99.90
6407;DHT22;3236;51.022;6.818;2023-06-14T05:08:35;16.50;99.90
6407;DHT22;3236;51.022;6.818;2023-06-14T05:11:03;16.70;99.90
6407;DHT22;3236;51.022;6.818;2023-06-14T05:13:30;17.20;99.90
6407;DHT22;3236;51.022;6.818;2023-06-14T05:16:06;17.10;99.90
6407;DHT22;3236;51.022;6.818;2023-06-14T05:18:33;17.20;99.90
6407;DHT22;3236;51.022;6.818;2023-06-14T05:21:01;17.30;99.90
6407;DHT22;3236;51.022;6.818;2023-06-14T05:23:30;17.50;99.90
6407;DHT22;3236;51.022;6.818;2023-06-14T05:26:01;17.70;99.90
6407;DHT22;3236;51.022;6.818;2023-06-14T05:28:30;17.80;99.90
6407;DHT22;3236;51.022;6.818;2023-06-14T05:30:57;18.00;99.90
6407;DHT22;3236;51.022;6.818;2023-06-14T05:33:24;18.10;99.90
6407;DHT22;3236;51.022;6.818;2023-06-14T05:35:51;18.30;99.90
6407;DHT22;3236;51.022;6.818;2023-06-14T05:38:19;18.40;99.90
6407;DHT22;3236;51.022;6.818;2023-06-14T05:40:47;18.50;99.90
6407;DHT22;3236;51.022;6.818;2023-06-14T05:43:19;18.60;99.90
6407;DHT22;3236;51.022;6.818;2023-06-14T05:45:47;18.80;99.90
6407;DHT22;3236;51.022;6.818;2023-06-14T05:48:14;19.30;99.90
6407;DHT22;3236;51.022;6.818;2023-06-14T05:50:47;18.90;99.90
6407;DHT22;3236;51.022;6.818;2023-06-14T05:53:15;19.00;99.90
6407;DHT22;3236;51.022;6.818;2023-06-14T05:55:42;19.10;99.90
6407;DHT22;3236;51.022;6.818;2023-06-14T05:58:17;19.30;99.90
6407;DHT22;3236;51.022;6.818;2023-06-14T06:00:44;19.30;98.60
6407;DHT22;3236;51.022;6.818;2023-06-14T06:03:12;19.50;97.10
6407;DHT22;3236;51.022;6.818;2023-06-14T06:05:39;19.60;96.40
6407;DHT22;3236;51.022;6.818;2023-06-14T06:08:06;19.60;94.80
6407;DHT22;3236;51.022;6.818;2023-06-14T06:10:33;19.70;93.40
6407;DHT22;3236;51.022;6.818;2023-06-14T06:13:00;19.90;92.00
6407;DHT22;3236;51.022;6.818;2023-06-14T06:15:28;20.00;90.00
6407;DHT22;3236;51.022;6.818;2023-06-14T06:17:55;20.10;90.80
6407;DHT22;3236;51.022;6.818;2023-06-14T06:20:23;20.20;87.70
6407;DHT22;3236;51.022;6.818;2023-06-14T06:22:53;20.20;88.10
6407;DHT22;3236;51.022;6.818;2023-06-14T06:25:21;20.40;85.50
6407;DHT22;3236;51.022;6.818;2023-06-14T06:27:51;20.40;84.50
6407;DHT22;3236;51.022;6.818;2023-06-14T06:30:21;20.60;84.50
6407;DHT22;3236;51.022;6.818;2023-06-14T06:32:50;20.50;82.90
6407;DHT22;3236;51.022;6.818;2023-06-14T06:35:17;20.60;81.80
6407;DHT22;3236;51.022;6.818;2023-06-14T06:37:44;19.80;81.00
6407;DHT22;3236;51.022;6.818;2023-06-14T06:40:11;20.80;80.20
6407;DHT22;3236;51.022;6.818;2023-06-14T06:42:38;20.90;79.10
6407;DHT22;3236;51.022;6.818;2023-06-14T06:45:06;21.00;77.20
6407;DHT22;3236;51.022;6.818;2023-06-14T06:47:33;21.10;77.50
6407;DHT22;3236;51.022;6.818;2023-06-14T06:50:02;21.30;74.30
6407;DHT22;3236;51.022;6.818;2023-06-14T06:52:29;21.30;74.20
6407;DHT22;3236;51.022;6.818;2023-06-14T06:54:56;21.40;73.60
6407;DHT22;3236;51.022;6.818;2023-06-14T06:57:29;21.50;75.10
6407;DHT22;3236;51.022;6.818;2023-06-14T06:59:57;21.60;73.10
6407;DHT22;3236;51.022;6.818;2023-06-14T07:02:24;21.80;73.60
6407;DHT22;3236;51.022;6.818;2023-06-14T07:04:51;21.90;70.10
6407;DHT22;3236;51.022;6.818;2023-06-14T07:07:23;21.80;69.70
6407;DHT22;3236;51.022;6.818;2023-06-14T07:09:50;21.70;68.60
6407;DHT22;3236;51.022;6.818;2023-06-14T07:12:18;21.90;69.10
6407;DHT22;3236;51.022;6.818;2023-06-14T07:14:45;22.00;69.10
6407;DHT22;3236;51.022;6.818;2023-06-14T07:17:12;22.10;67.00
6407;DHT22;3236;51.022;6.818;2023-06-14T07:19:39;22.20;66.30
6407;DHT22;3236;51.022;6.818;2023-06-14T07:22:06;22.40;64.40
6407;DHT22;3236;51.022;6.818;2023-06-14T07:24:35;22.60;65.50
6407;DHT22;3236;51.022;6.818;2023-06-14T07:27:03;22.60;62.40
6407;DHT22;3236;51.022;6.818;2023-06-14T07:29:30;22.70;64.10
6407;DHT22;3236;51.022;6.818;2023-06-14T07:31:57;22.70;62.80
6407;DHT22;3236;51.022;6.818;2023-06-14T07:34:25;22.80;62.00
6407;DHT22;3236;51.022;6.818;2023-06-14T07:36:53;22.90;58.70
6407;DHT22;3236;51.022;6.818;2023-06-14T07:39:20;23.00;57.10
6407;DHT22;3236;51.022;6.818;2023-06-14T07:41:49;23.10;56.90
6407;DHT22;3236;51.022;6.818;2023-06-14T07:44:16;23.40;53.70
6407;DHT22;3236;51.022;6.818;2023-06-14T07:46:43;23.50;52.00
6407;DHT22;3236;51.022;6.818;2023-06-14T07:49:12;22.80;53.70
6407;DHT22;3236;51.022;6.818;2023-06-14T07:51:39;23.70;52.30
6407;DHT22;3236;51.022;6.818;2023-06-14T07:54:06;23.70;46.20
6407;DHT22;3236;51.022;6.818;2023-06-14T07:56:34;23.50;44.10
6407;DHT22;3236;51.022;6.818;2023-06-14T07:59:04;23.50;45.90
6407;DHT22;3236;51.022;6.818;2023-06-14T08:01:36;23.90;45.60
6407;DHT22;3236;51.022;6.818;2023-06-14T08:04:03;24.10;43.20
6407;DHT22;3236;51.022;6.818;2023-06-14T08:06:30;24.30;41.60
6407;DHT22;3236;51.022;6.818;2023-06-14T08:08:59;24.30;31.30
6407;DHT22;3236;51.022;6.818;2023-06-14T08:11:26;24.30;31.80
6407;DHT22;3236;51.022;6.818;2023-06-14T08:13:53;24.40;29.50
6407;DHT22;3236;51.022;6.818;2023-06-14T08:16:22;24.10;27.70
6407;DHT22;3236;51.022;6.818;2023-06-14T08:18:49;24.20;25.10
6407;DHT22;3236;51.022;6.818;2023-06-14T08:21:16;24.30;22.30
6407;DHT22;3236;51.022;6.818;2023-06-14T08:23:43;24.40;23.60
6407;DHT22;3236;51.022;6.818;2023-06-14T08:26:10;24.50;23.00
6407;DHT22;3236;51.022;6.818;2023-06-14T08:28:38;24.80;22.30
6407;DHT22;3236;51.022;6.818;2023-06-14T08:31:05;25.00;20.80
6407;DHT22;3236;51.022;6.818;2023-06-14T08:33:33;25.00;18.40
6407;DHT22;3236;51.022;6.818;2023-06-14T08:36:00;24.80;16.00
6407;DHT22;3236;51.022;6.818;2023-06-14T08:38:27;24.90;17.00
6407;DHT22;3236;51.022;6.818;2023-06-14T08:40:57;24.90;17.50
6407;DHT22;3236;51.022;6.818;2023-06-14T08:43:25;25.20;17.60
6407;DHT22;3236;51.022;6.818;2023-06-14T08:45:56;24.90;16.00
6407;DHT22;3236;51.022;6.818;2023-06-14T08:48:27;25.20;14.60
6407;DHT22;3236;51.022;6.818;2023-06-14T08:50:56;25.30;14.50
6407;DHT22;3236;51.022;6.818;2023-06-14T08:53:28;25.60;14.20
6407;DHT22;3236;51.022;6.818;2023-06-14T08:56:04;25.70;14.10
6407;DHT22;3236;51.022;6.818;2023-06-14T08:58:33;25.50;13.10
6407;DHT22;3236;51.022;6.818;2023-06-14T09:01:05;25.40;13.60
6407;DHT22;3236;51.022;6.818;2023-06-14T09:03:33;25.70;15.30
6407;DHT22;3236;51.022;6.818;2023-06-14T09:06:02;25.70;13.90
6407;DHT22;3236;51.022;6.818;2023-06-14T09:08:29;25.40;13.10
6407;DHT22;3236;51.022;6.818;2023-06-14T09:10:57;25.60;13.10
6407;DHT22;3236;51.022;6.818;2023-06-14T09:13:24;25.70;13.40
6407;DHT22;3236;51.022;6.818;2023-06-14T09:15:53;26.10;12.50
6407;DHT22;3236;51.022;6.818;2023-06-14T09:18:20;26.20;13.00
6407;DHT22;3236;51.022;6.818;2023-06-14T09:20:50;26.20;13.20
6407;DHT22;3236;51.022;6.818;2023-06-14T09:23:21;26.30;13.30
6407;DHT22;3236;51.022;6.818;2023-06-14T09:25:51;26.20;12.60
6407;DHT22;3236;51.022;6.818;2023-06-14T09:28:18;26.40;13.30
6407;DHT22;3236;51.022;6.818;2023-06-14T09:30:48;26.70;14.20
6407;DHT22;3236;51.022;6.818;2023-06-14T09:33:17;26.60;13.00
6407;DHT22;3236;51.022;6.818;2023-06-14T09:35:45;26.80;13.30
6407;DHT22;3236;51.022;6.818;2023-06-14T09:38:12;26.50;10.80
6407;DHT22;3236;51.022;6.818;2023-06-14T09:40:41;26.60;12.20
6407;DHT22;3236;51.022;6.818;2023-06-14T09:43:08;26.50;13.90
6407;DHT22;3236;51.022;6.818;2023-06-14T09:45:36;26.60;15.20
6407;DHT22;3236;51.022;6.818;2023-06-14T09:48:08;26.20;14.20
6407;DHT22;3236;51.022;6.818;2023-06-14T09:50:37;26.30;14.10
6407;DHT22;3236;51.022;6.818;2023-06-14T09:53:07;26.10;13.50
6407;DHT22;3236;51.022;6.818;2023-06-14T09:55:36;25.90;13.50
6407;DHT22;3236;51.022;6.818;2023-06-14T09:58:06;25.70;14.20
6407;DHT22;3236;51.022;6.818;2023-06-14T10:00:33;26.00;16.10
6407;DHT22;3236;51.022;6.818;2023-06-14T10:03:06;25.90;15.70
6407;DHT22;3236;51.022;6.818;2023-06-14T10:05:45;26.00;16.80
6407;DHT22;3236;51.022;6.818;2023-06-14T10:08:14;26.10;17.10
6407;DHT22;3236;51.022;6.818;2023-06-14T10:10:45;26.40;17.50
6407;DHT22;3236;51.022;6.818;2023-06-14T10:13:14;26.40;18.60
6407;DHT22;3236;51.022;6.818;2023-06-14T10:15:48;26.20;17.60
6407;DHT22;3236;51.022;6.818;2023-06-14T10:18:22;26.50;17.50
6407;DHT22;3236;51.022;6.818;2023-06-14T10:20:58;26.50;17.40
6407;DHT22;3236;51.022;6.818;2023-06-14T10:23:28;27.30;17.20
6407;DHT22;3236;51.022;6.818;2023-06-14T10:25:57;27.40;14.80
6407;DHT22;3236;51.022;6.818;2023-06-14T10:28:27;27.40;12.90
6407;DHT22;3236;51.022;6.818;2023-06-14T10:31:03;27.10;13.60
6407;DHT22;3236;51.022;6.818;2023-06-14T10:36:08;27.60;14.10
6407;DHT22;3236;51.022;6.818;2023-06-14T10:38:37;27.70;14.20
6407;DHT22;3236;51.022;6.818;2023-06-14T10:41:04;27.30;15.00
6407;DHT22;3236;51.022;6.818;2023-06-14T10:43:33;27.80;15.20
6407;DHT22;3236;51.022;6.818;2023-06-14T10:46:17;27.70;14.90
6407;DHT22;3236;51.022;6.818;2023-06-14T10:48:44;27.90;14.70
6407;DHT22;3236;51.022;6.818;2023-06-14T10:51:16;28.00;15.70
6407;DHT22;3236;51.022;6.818;2023-06-14T10:53:46;27.70;15.10
6407;DHT22;3236;51.022;6.818;2023-06-14T10:56:25;28.30;14.80
6407;DHT22;3236;51.022;6.818;2023-06-14T10:58:55;28.70;16.70
6407;DHT22;3236;51.022;6.818;2023-06-14T11:01:36;28.90;17.00
6407;DHT22;3236;51.022;6.818;2023-06-14T11:04:10;29.30;15.70
6407;DHT22;3236;51.022;6.818;2023-06-14T11:06:46;29.40;15.20
6407;DHT22;3236;51.022;6.818;2023-06-14T11:12:15;28.60;16.00
6407;DHT22;3236;51.022;6.818;2023-06-14T11:14:46;29.10;17.10
6407;DHT22;3236;51.022;6.818;2023-06-14T11:17:14;29.40;15.70
6407;DHT22;3236;51.022;6.818;2023-06-14T11:19:41;29.30;16.20
6407;DHT22;3236;51.022;6.818;2023-06-14T11:22:08;29.10;16.00
6407;DHT22;3236;51.022;6.818;2023-06-14T11:24:36;29.00;14.30
6407;DHT22;3236;51.022;6.818;2023-06-14T11:27:03;30.00;15.90
6407;DHT22;3236;51.022;6.818;2023-06-14T11:29:32;30.90;14.30
6407;DHT22;3236;51.022;6.818;2023-06-14T11:32:00;30.70;13.80
6407;DHT22;3236;51.022;6.818;2023-06-14T11:34:27;30.10;13.00
6407;DHT22;3236;51.022;6.818;2023-06-14T11:36:55;30.20;14.20
6407;DHT22;3236;51.022;6.818;2023-06-14T11:39:25;28.40;13.10
6407;DHT22;3236;51.022;6.818;2023-06-14T11:41:56;28.60;15.40
6407;DHT22;3236;51.022;6.818;2023-06-14T11:44:26;29.40;14.70
6407;DHT22;3236;51.022;6.818;2023-06-14T11:46:54;29.40;12.40
6407;DHT22;3236;51.022;6.818;2023-06-14T11:49:24;30.00;13.10
6407;DHT22;3236;51.022;6.818;2023-06-14T11:51:53;30.20;12.50
6407;DHT22;3236;51.022;6.818;2023-06-14T11:54:20;31.30;11.00
6407;DHT22;3236;51.022;6.818;2023-06-14T11:56:47;31.00;11.10
6407;DHT22;3236;51.022;6.818;2023-06-14T11:59:21;30.60;9.80
6407;DHT22;3236;51.022;6.818;2023-06-14T12:01:48;30.60;9.90
6407;DHT22;3236;51.022;6.818;2023-06-14T12:04:24;31.40;8.60
6407;DHT22;3236;51.022;6.818;2023-06-14T12:06:53;31.40;8.50
6407;DHT22;3236;51.022;6.818;2023-06-14T12:09:21;31.50;6.80
6407;DHT22;3236;51.022;6.818;2023-06-14T12:11:49;31.60;7.00
6407;DHT22;3236;51.022;6.818;2023-06-14T12:14:16;31.70;6.60
6407;DHT22;3236;51.022;6.818;2023-06-14T12:16:43;31.60;6.50
6407;DHT22;3236;51.022;6.818;2023-06-14T12:19:15;30.40;7.20
6407;DHT22;3236;51.022;6.818;2023-06-14T12:21:46;29.00;8.40
6407;DHT22;3236;51.022;6.818;2023-06-14T12:24:14;29.70;9.10
6407;DHT22;3236;51.022;6.818;2023-06-14T12:26:41;29.70;8.80
6407;DHT22;3236;51.022;6.818;2023-06-14T12:29:09;29.70;9.30
6407;DHT22;3236;51.022;6.818;2023-06-14T12:31:40;30.20;8.70
6407;DHT22;3236;51.022;6.818;2023-06-14T12:34:08;30.90;6.50
6407;DHT22;3236;51.022;6.818;2023-06-14T12:36:35;31.40;6.40
6407;DHT22;3236;51.022;6.818;2023-06-14T12:39:08;31.40;4.90
6407;DHT22;3236;51.022;6.818;2023-06-14T12:41:35;31.20;4.10
6407;DHT22;3236;51.022;6.818;2023-06-14T12:44:03;31.50;4.50
6407;DHT22;3236;51.022;6.818;2023-06-14T12:46:30;32.20;5.10
6407;DHT22;3236;51.022;6.818;2023-06-14T12:48:58;32.70;3.30
6407;DHT22;3236;51.022;6.818;2023-06-14T12:51:25;33.00;4.30
6407;DHT22;3236;51.022;6.818;2023-06-14T12:53:52;33.90;3.40
6407;DHT22;3236;51.022;6.818;2023-06-14T12:56:20;32.50;1.00
6407;DHT22;3236;51.022;6.818;2023-06-14T12:58:47;32.50;1.10
6407;DHT22;3236;51.022;6.818;2023-06-14T13:01:15;33.40;1.30
6407;DHT22;3236;51.022;6.818;2023-06-14T13:03:42;32.90;1.00
6407;DHT22;3236;51.022;6.818;2023-06-14T13:06:09;32.70;1.00
6407;DHT22;3236;51.022;6.818;2023-06-14T13:08:36;33.00;1.00
6407;DHT22;3236;51.022;6.818;2023-06-14T13:11:03;32.90;1.00
6407;DHT22;3236;51.022;6.818;2023-06-14T13:13:35;33.20;1.00
6407;DHT22;3236;51.022;6.818;2023-06-14T13:16:02;33.90;1.00
6407;DHT22;3236;51.022;6.818;2023-06-14T13:18:29;33.40;1.00
6407;DHT22;3236;51.022;6.818;2023-06-14T13:20:56;33.90;1.00
6407;DHT22;3236;51.022;6.818;2023-06-14T13:23:24;33.20;1.00
6407;DHT22;3236;51.022;6.818;2023-06-14T13:25:51;33.50;1.00
6407;DHT22;3236;51.022;6.818;2023-06-14T13:28:21;33.30;1.00
6407;DHT22;3236;51.022;6.818;2023-06-14T13:30:51;33.50;1.00
6407;DHT22;3236;51.022;6.818;2023-06-14T13:33:21;33.50;1.00
6407;DHT22;3236;51.022;6.818;2023-06-14T13:35:51;33.60;1.00
6407;DHT22;3236;51.022;6.818;2023-06-14T13:38:20;33.50;1.00
6407;DHT22;3236;51.022;6.818;2023-06-14T13:40:47;34.00;1.00
6407;DHT22;3236;51.022;6.818;2023-06-14T13:43:20;34.00;1.00
6407;DHT22;3236;51.022;6.818;2023-06-14T14:32:39;31.90;1.00
6407;DHT22;3236;51.022;6.818;2023-06-14T14:38:28;30.60;1.00
6407;DHT22;3236;51.022;6.818;2023-06-14T14:40:58;30.20;1.60
6407;DHT22;3236;51.022;6.818;2023-06-14T14:43:31;31.60;1.30
6407;DHT22;3236;51.022;6.818;2023-06-14T14:45:59;33.70;1.00
6407;DHT22;3236;51.022;6.818;2023-06-14T14:48:26;34.20;1.00
6407;DHT22;3236;51.022;6.818;2023-06-14T14:50:53;34.40;1.00
6407;DHT22;3236;51.022;6.818;2023-06-14T14:53:20;35.10;1.00
6407;DHT22;3236;51.022;6.818;2023-06-14T14:55:47;34.70;1.00
6407;DHT22;3236;51.022;6.818;2023-06-14T14:58:14;32.70;1.00
6407;DHT22;3236;51.022;6.818;2023-06-14T15:00:43;33.70;1.00
6407;DHT22;3236;51.022;6.818;2023-06-14T15:03:15;33.30;1.00
6407;DHT22;3236;51.022;6.818;2023-06-14T15:05:42;32.90;1.00
6407;DHT22;3236;51.022;6.818;2023-06-14T15:08:09;32.60;1.00
6407;DHT22;3236;51.022;6.818;2023-06-14T15:10:37;32.20;1.00
6407;DHT22;3236;51.022;6.818;2023-06-14T15:13:06;31.30;1.00
6407;DHT22;3236;51.022;6.818;2023-06-14T15:15:34;32.80;1.00
6407;DHT22;3236;51.022;6.818;2023-06-14T15:18:01;32.90;1.00
6407;DHT22;3236;51.022;6.818;2023-06-14T15:20:30;34.30;1.00
6407;DHT22;3236;51.022;6.818;2023-06-14T15:22:57;35.20;1.00
6407;DHT22;3236;51.022;6.818;2023-06-14T15:25:25;35.60;1.00
6407;DHT22;3236;51.022;6.818;2023-06-14T15:27:55;35.50;1.00
6407;DHT22;3236;51.022;6.818;2023-06-14T15:30:22;35.30;1.00
6407;DHT22;3236;51.022;6.818;2023-06-14T15:32:52;35.30;1.00
6407;DHT22;3236;51.022;6.818;2023-06-14T15:35:19;35.80;1.00
6407;DHT22;3236;51.022;6.818;2023-06-14T15:37:48;35.80;1.00
6407;DHT22;3236;51.022;6.818;2023-06-14T15:40:16;35.50;1.00
6407;DHT22;3236;51.022;6.818;2023-06-14T15:42:43;34.90;1.00
6407;DHT22;3236;51.022;6.818;2023-06-14T15:45:10;33.60;1.00
6407;DHT22;3236;51.022;6.818;2023-06-14T15:47:37;33.80;1.00
6407;DHT22;3236;51.022;6.818;2023-06-14T15:50:05;32.70;1.00
6407;DHT22;3236;51.022;6.818;2023-06-14T15:52:39;30.90;1.00
6407;DHT22;3236;51.022;6.818;2023-06-14T15:55:08;29.40;1.00
6407;DHT22;3236;51.022;6.818;2023-06-14T15:57:35;30.30;1.00
6407;DHT22;3236;51.022;6.818;2023-06-14T16:00:03;30.50;1.00
6407;DHT22;3236;51.022;6.818;2023-06-14T16:02:30;31.60;1.00
6407;DHT22;3236;51.022;6.818;2023-06-14T16:04:57;32.50;1.00
6407;DHT22;3236;51.022;6.818;2023-06-14T16:07:25;34.10;1.00
6407;DHT22;3236;51.022;6.818;2023-06-14T16:09:52;33.50;1.00
6407;DHT22;3236;51.022;6.818;2023-06-14T16:12:20;33.40;1.00
6407;DHT22;3236;51.022;6.818;2023-06-14T16:14:48;32.40;1.00
6407;DHT22;3236;51.022;6.818;2023-06-14T16:17:15;32.50;1.00
6407;DHT22;3236;51.022;6.818;2023-06-14T16:19:42;33.10;1.00
6407;DHT22;3236;51.022;6.818;2023-06-14T16:22:09;30.20;1.00
6407;DHT22;3236;51.022;6.818;2023-06-14T16:24:38;30.20;1.00
6407;DHT22;3236;51.022;6.818;2023-06-14T16:27:05;30.30;1.00
6407;DHT22;3236;51.022;6.818;2023-06-14T16:29:36;29.90;1.00
6407;DHT22;3236;51.022;6.818;2023-06-14T16:32:04;29.20;1.00
6407;DHT22;3236;51.022;6.818;2023-06-14T16:34:34;30.20;1.00
6407;DHT22;3236;51.022;6.818;2023-06-14T16:37:01;30.60;1.00
6407;DHT22;3236;51.022;6.818;2023-06-14T16:39:28;31.70;1.00
6407;DHT22;3236;51.022;6.818;2023-06-14T16:41:55;31.70;1.00
6407;DHT22;3236;51.022;6.818;2023-06-14T16:44:22;32.60;1.00
6407;DHT22;3236;51.022;6.818;2023-06-14T16:46:54;32.80;1.00
6407;DHT22;3236;51.022;6.818;2023-06-14T16:49:22;32.00;1.00
6407;DHT22;3236;51.022;6.818;2023-06-14T16:51:49;31.30;1.00
6407;DHT22;3236;51.022;6.818;2023-06-14T16:54:16;30.00;1.00
6407;DHT22;3236;51.022;6.818;2023-06-14T16:56:43;29.70;1.00
6407;DHT22;3236;51.022;6.818;2023-06-14T16:59:10;29.10;1.00
6407;DHT22;3236;51.022;6.818;2023-06-14T17:01:37;29.50;1.00
6407;DHT22;3236;51.022;6.818;2023-06-14T17:04:05;30.30;1.00
6407;DHT22;3236;51.022;6.818;2023-06-14T17:06:32;31.10;1.00
6407;DHT22;3236;51.022;6.818;2023-06-14T17:09:00;31.20;1.00
6407;DHT22;3236;51.022;6.818;2023-06-14T17:11:28;31.00;1.00